Aérodrome :
LOGIN :

S'inscrire | Disclaimer

   EN    FR    IT 

 










Légende :    VFR   VFR Marginal   IFR   IFR Intensif   IFR Très Intensif
Visi : 
Plafond : 
>= 8 km
>= 3000ft
5 à 8 km
1000 à 3000 ft
1500m à 5 km
500 à 1000 ft
800 à 1500m
200 à 500 ft
< 800m
< 200 ft
Symboles :   Orages  Brouillard  Fortes neiges  Fortes précipitations  Vent > 20 kt
SIGMETs :   Divers  Orages  Givrage  Turbulence  Onde Orograph.  Cendres Volcan.






- Altitude de l'aérodrome : 1249 ft


ETSN - Neuburg AB

DERNIER METAR :
  • 200620Z 36004KT 5000 BR OVC006 03/02 Q1016 YLO WHT TEMPO YLO

METARs EXPIRÉS :
  • 200520Z 01002KT 5000 BR BKN005 03/02 Q1017 YLO WHT TEMPO YLO
  • 200433Z 00000KT 3400 BR BKN004 01/01 Q1017 YLO
  • 200420Z 00000KT 3200 BR SCT005 SCT070 01/00 Q1016 YLO
  • 200351Z 05001KT 6000 SCT075 02/01 Q1017 WHT

TAF TAF ETSN
Valide du 20 à 06h jusqu'au 20 à 15h UTC


200520Z 2006/2015 05005KT 5000 BR SCT003 BKN020
TEMPO 2006/2009 VRB03KT 2000 BR BKN003
PROB30 2006/2009 VRB03KT 0100 FG VV001
BECMG 2009/2011 05005 9999 NSW SCT020 BY ETGL



MET'MAP, la Météo Aéronautique d'un coup d'oeil ! - Copyright ORBIFLY Décembre 2007 - Disclaimer

ORBIFLY MET'MAP TEAM :

Programmation & Développement : Alexandra Zaïnal
Conception & Développement : Baudouin d'Aumeries
Co-Programmation & Développement : Marc-Olivier Méhu
Soutien technique & logistique : Manuel Goepfert

Contact : metmap@orbifly.com




SOURCES & CREDITS :

   NOAA